Time;durP1;ratioP1;P1;durP2;ratioP2;P2;SDS_P1;SDS_P2;PMS_P1;PMS_P2;Temp;Humidity;BMP_temperature;BMP_pressure;BME280_temperature;BME280_humidity;BME280_pressure;Samples;Min_cycle;Max_cycle;Signal;HPM_P1;HPM_P2
2022/06/08 00:00:50;;;;;;;3.08;1.73;;;;;;;16.81;100.00;96170.91;5022117;28;20077;-48
2022/06/08 00:03:23;;;;;;;2.90;1.50;;;;;;;16.66;100.00;96175.47;5024375;28;20075;-48
2022/06/08 00:05:52;;;;;;;2.47;1.60;;;;;;;16.79;100.00;96168.47;5021098;28;20076;-48
2022/06/08 00:08:21;;;;;;;2.50;1.67;;;;;;;16.94;100.00;96165.72;5024346;28;20449;-53
2022/06/08 00:10:49;;;;;;;3.10;1.52;;;;;;;16.93;100.00;96172.06;5027366;28;20065;-48
2022/06/08 00:13:18;;;;;;;2.65;1.70;;;;;;;16.41;100.00;96167.00;5029326;28;20099;-45
2022/06/08 00:15:48;;;;;;;2.00;1.65;;;;;;;16.66;100.00;96168.31;5025842;28;21770;-45
2022/06/08 00:18:16;;;;;;;4.10;1.90;;;;;;;16.74;100.00;96165.53;5021996;28;20053;-46
2022/06/08 00:20:45;;;;;;;3.65;1.80;;;;;;;16.70;100.00;96158.09;5019640;28;20077;-47
2022/06/08 00:23:14;;;;;;;4.47;1.80;;;;;;;16.61;100.00;96162.69;5027967;28;20614;-49
2022/06/08 00:25:43;;;;;;;1.52;1.42;;;;;;;16.61;100.00;96155.53;5025544;28;20541;-51
2022/06/08 00:28:11;;;;;;;2.75;1.70;;;;;;;16.69;100.00;96151.09;5024286;28;20069;-48
2022/06/08 00:30:40;;;;;;;4.25;1.60;;;;;;;16.55;100.00;96158.97;5021443;28;20075;-55
2022/06/08 00:33:10;;;;;;;2.75;1.60;;;;;;;16.33;100.00;96152.78;5016534;28;20065;-53
2022/06/08 00:35:38;;;;;;;2.22;1.65;;;;;;;16.52;100.00;96159.34;5019545;28;20073;-53
2022/06/08 00:38:07;;;;;;;1.90;1.67;;;;;;;16.24;100.00;96159.25;5024548;28;20512;-48
2022/06/08 00:40:42;;;;;;;3.60;2.00;;;;;;;16.44;100.00;96158.63;5019506;28;20057;-51
2022/06/08 00:43:11;;;;;;;1.73;1.50;;;;;;;16.54;100.00;96153.81;5013574;28;20456;-52
2022/06/08 00:45:40;;;;;;;2.72;1.75;;;;;;;16.65;100.00;96150.66;5037925;28;20076;-50
2022/06/08 00:48:10;;;;;;;2.22;1.83;;;;;;;16.72;100.00;96151.53;5012411;28;20100;-51
2022/06/08 00:50:41;;;;;;;2.92;1.98;;;;;;;16.72;100.00;96148.88;5021684;28;20076;-52
2022/06/08 00:53:10;;;;;;;2.13;1.90;;;;;;;16.79;100.00;96151.63;5019999;28;20057;-49
2022/06/08 00:55:40;;;;;;;2.30;1.60;;;;;;;16.74;100.00;96154.03;5021085;28;20450;-51
2022/06/08 00:58:14;;;;;;;4.00;1.83;;;;;;;16.85;100.00;96154.34;5018392;28;20085;-51
2022/06/08 01:00:43;;;;;;;4.45;2.10;;;;;;;16.77;100.00;96156.34;4999006;28;20073;-53
2022/06/08 01:03:15;;;;;;;2.40;1.70;;;;;;;16.71;100.00;96162.41;4998768;28;20060;-54
2022/06/08 01:05:46;;;;;;;6.82;1.90;;;;;;;16.77;100.00;96151.84;5001677;28;20472;-52
2022/06/08 01:08:22;;;;;;;2.40;2.00;;;;;;;16.75;100.00;96147.72;5003420;28;20543;-49
2022/06/08 01:10:53;;;;;;;4.35;2.17;;;;;;;16.89;100.00;96151.31;4998422;28;20066;-52
2022/06/08 01:13:21;;;;;;;4.50;2.10;;;;;;;16.67;100.00;96151.31;5000319;28;20046;-52
2022/06/08 01:15:51;;;;;;;2.70;2.10;;;;;;;16.40;100.00;96146.72;4998147;28;20399;-53
2022/06/08 01:18:21;;;;;;;2.60;2.00;;;;;;;16.55;100.00;96152.81;5001989;28;20072;-49
2022/06/08 01:20:52;;;;;;;2.25;1.67;;;;;;;16.76;100.00;96141.41;5000597;28;20062;-50
2022/06/08 01:23:22;;;;;;;3.00;1.70;;;;;;;16.57;100.00;96140.97;5003793;28;20062;-49
2022/06/08 01:26:16;;;;;;;5.53;1.77;;;;;;;16.81;100.00;96133.63;4999480;28;20076;-49
2022/06/08 01:28:50;;;;;;;6.57;2.00;;;;;;;16.72;100.00;96134.75;5001516;28;20121;-54
2022/06/08 01:31:40;;;;;;;2.30;1.73;;;;;;;16.52;100.00;96132.75;5006117;28;20078;-48
2022/06/08 01:34:13;;;;;;;4.43;2.10;;;;;;;16.70;100.00;96131.47;5002889;28;20054;-47
2022/06/08 01:37:01;;;;;;;2.92;1.75;;;;;;;16.67;100.00;96130.00;5005227;28;20078;-52
2022/06/08 01:39:40;;;;;;;2.13;1.90;;;;;;;16.67;100.00;96124.69;5024526;28;21347;-45
2022/06/08 01:42:33;;;;;;;1.95;1.75;;;;;;;16.72;100.00;96110.78;5019844;28;20076;-50
2022/06/08 01:47:59;;;;;;;2.22;1.85;;;;;;;16.84;100.00;96102.13;5023598;28;20080;-47
2022/06/08 01:50:43;;;;;;;2.15;1.77;;;;;;;16.52;100.00;96107.97;5020156;28;20180;-48
2022/06/08 01:53:19;;;;;;;2.15;1.90;;;;;;;16.92;100.00;96093.16;5023824;28;20080;-54
2022/06/08 01:55:53;;;;;;;2.55;1.80;;;;;;;16.89;100.00;96092.72;5020733;28;20535;-54
2022/06/08 01:58:27;;;;;;;2.08;1.63;;;;;;;16.62;100.00;96092.50;5023268;28;20080;-56
2022/06/08 02:01:02;;;;;;;2.13;1.60;;;;;;;16.83;100.00;96086.34;5026512;28;20057;-52
2022/06/08 02:03:35;;;;;;;1.65;1.30;;;;;;;16.50;100.00;96088.69;5002063;28;20513;-56
2022/06/08 02:06:09;;;;;;;2.33;1.50;;;;;;;16.74;100.00;96080.31;5017304;28;20076;-54
2022/06/08 02:08:42;;;;;;;6.03;1.70;;;;;;;16.94;100.00;96079.66;5006935;28;21609;-53
2022/06/08 02:11:16;;;;;;;2.13;1.90;;;;;;;16.75;100.00;96079.31;5010409;28;20239;-47
2022/06/08 02:13:47;;;;;;;1.73;1.48;;;;;;;16.96;100.00;96078.44;5020864;28;20361;-50
2022/06/08 02:16:19;;;;;;;2.58;1.83;;;;;;;16.99;100.00;96077.22;5020938;28;20546;-48
2022/06/08 02:18:52;;;;;;;3.03;1.80;;;;;;;16.97;100.00;96077.44;5020541;28;20111;-49
2022/06/08 02:21:24;;;;;;;2.50;1.90;;;;;;;17.03;100.00;96073.16;5022017;28;20061;-51
2022/06/08 02:23:56;;;;;;;2.03;1.80;;;;;;;17.15;100.00;96065.47;5018964;28;20454;-49
2022/06/08 02:26:29;;;;;;;3.17;1.85;;;;;;;17.10;100.00;96063.38;5021554;28;20130;-53
2022/06/08 02:29:01;;;;;;;1.60;1.50;;;;;;;16.99;100.00;96067.41;5020331;28;20065;-50
2022/06/08 02:31:33;;;;;;;2.22;1.80;;;;;;;17.23;100.00;96066.13;5019133;28;20050;-53
2022/06/08 02:36:55;;;;;;;4.18;1.80;;;;;;;17.14;100.00;96066.50;5025196;28;20167;-50
2022/06/08 02:39:27;;;;;;;2.00;1.60;;;;;;;17.22;100.00;96061.81;5019419;28;20069;-52
2022/06/08 02:42:03;;;;;;;5.78;1.88;;;;;;;17.40;100.00;96055.16;5021184;28;21858;-48
2022/06/08 02:44:33;;;;;;;3.00;1.77;;;;;;;17.15;100.00;96063.63;5018845;28;20065;-51
2022/06/08 02:47:05;;;;;;;2.07;1.80;;;;;;;17.07;100.00;96063.78;5020597;28;20041;-50
2022/06/08 02:49:34;;;;;;;2.95;2.20;;;;;;;16.85;100.00;96060.31;5015128;28;20487;-52
2022/06/08 02:52:06;;;;;;;4.40;1.65;;;;;;;16.75;100.00;96065.16;5022119;28;20081;-48
2022/06/08 02:54:34;;;;;;;2.38;1.70;;;;;;;16.87;100.00;96066.28;5019584;28;20083;-47
2022/06/08 02:57:12;;;;;;;2.35;1.90;;;;;;;17.03;100.00;96065.16;5018456;28;20096;-47
2022/06/08 02:59:47;;;;;;;2.08;1.83;;;;;;;17.06;100.00;96065.59;5019804;28;20066;-53
2022/06/08 03:02:19;;;;;;;3.22;1.80;;;;;;;16.87;100.00;96060.97;5016326;28;20073;-46
2022/06/08 03:04:52;;;;;;;2.58;1.50;;;;;;;16.99;100.00;96066.56;5020554;28;20069;-46
2022/06/08 03:07:23;;;;;;;3.00;1.80;;;;;;;16.82;100.00;96074.03;5019602;28;20127;-50
2022/06/08 03:09:53;;;;;;;5.53;2.17;;;;;;;16.92;100.00;96074.50;5020725;28;20069;-47
2022/06/08 03:12:27;;;;;;;4.32;1.92;;;;;;;16.77;100.00;96077.28;5018679;28;20065;-48
2022/06/08 03:14:56;;;;;;;4.55;1.88;;;;;;;17.01;100.00;96077.88;5021667;28;20069;-47
2022/06/08 03:17:32;;;;;;;2.67;2.03;;;;;;;16.88;100.00;96077.78;5019799;28;20065;-46
2022/06/08 03:20:00;;;;;;;2.40;1.90;;;;;;;16.97;100.00;96072.09;5022555;28;20111;-49
2022/06/08 03:22:29;;;;;;;3.53;2.10;;;;;;;16.94;100.00;96074.34;5026824;28;20061;-46
2022/06/08 03:24:57;;;;;;;1.98;1.85;;;;;;;16.98;100.00;96072.94;5023738;28;20480;-50
2022/06/08 03:27:27;;;;;;;2.53;1.95;;;;;;;16.76;100.00;96083.63;5026444;28;21369;-50
2022/06/08 03:29:56;;;;;;;1.92;1.80;;;;;;;16.74;100.00;96082.97;5022228;28;20069;-50
2022/06/08 03:32:26;;;;;;;2.38;2.17;;;;;;;16.80;100.00;96084.88;5024379;28;20064;-51
2022/06/08 03:34:55;;;;;;;2.40;2.20;;;;;;;16.76;100.00;96082.81;5023684;28;20728;-48
2022/06/08 03:37:23;;;;;;;3.53;2.00;;;;;;;16.61;100.00;96081.00;5024528;28;20053;-45
2022/06/08 03:39:52;;;;;;;3.45;2.03;;;;;;;16.45;100.00;96088.41;5025514;28;20103;-53
2022/06/08 03:42:20;;;;;;;3.17;1.85;;;;;;;16.44;100.00;96078.78;5023078;28;20065;-52
2022/06/08 03:44:50;;;;;;;6.82;2.58;;;;;;;16.64;100.00;96084.31;5023539;28;20083;-53
2022/06/08 03:47:21;;;;;;;4.43;2.30;;;;;;;16.82;100.00;96085.50;5024752;28;20062;-48
2022/06/08 03:49:51;;;;;;;4.95;2.17;;;;;;;16.88;100.00;96081.25;5022676;28;20061;-48
2022/06/08 03:52:22;;;;;;;2.22;2.03;;;;;;;16.78;100.00;96080.75;5022755;28;20076;-51
2022/06/08 03:54:54;;;;;;;3.92;2.80;;;;;;;17.48;100.00;96074.47;5025646;28;20080;-52
2022/06/08 03:57:23;;;;;;;3.20;2.90;;;;;;;18.70;100.00;96062.91;5027203;28;20081;-45
2022/06/08 03:59:53;;;;;;;5.03;3.00;;;;;;;19.07;100.00;96065.22;5022448;28;20076;-52
2022/06/08 04:02:21;;;;;;;2.60;2.05;;;;;;;18.50;100.00;96065.56;5024095;28;20452;-47
2022/06/08 04:04:50;;;;;;;2.40;2.20;;;;;;;18.08;100.00;96068.59;5022216;28;20070;-49
2022/06/08 04:07:19;;;;;;;2.70;1.90;;;;;;;17.89;100.00;96062.97;5022871;28;20195;-45
2022/06/08 04:09:47;;;;;;;6.40;2.20;;;;;;;17.37;100.00;96075.00;5025069;28;20076;-45
2022/06/08 04:12:22;;;;;;;7.63;2.17;;;;;;;17.62;100.00;96069.19;5023617;28;20077;-47
2022/06/08 04:14:52;;;;;;;2.20;1.80;;;;;;;17.43;100.00;96073.41;5020133;28;20061;-54
2022/06/08 04:17:21;;;;;;;3.53;2.13;;;;;;;17.41;100.00;96073.63;5027874;28;20057;-52
2022/06/08 04:19:49;;;;;;;2.17;2.00;;;;;;;17.31;100.00;96071.31;5019238;28;20076;-48
2022/06/08 04:22:19;;;;;;;2.05;1.80;;;;;;;16.93;100.00;96075.34;5009784;28;20069;-47
2022/06/08 04:24:48;;;;;;;5.65;2.10;;;;;;;16.87;100.00;96074.28;5009504;28;20085;-50
2022/06/08 04:27:17;;;;;;;4.03;2.60;;;;;;;17.41;100.00;96075.44;5026248;28;20635;-51
2022/06/08 04:29:45;;;;;;;4.10;2.95;;;;;;;19.17;100.00;96060.25;5038100;28;21031;-48
2022/06/08 04:32:15;;;;;;;3.17;2.92;;;;;;;20.63;100.00;96044.41;5023748;28;20061;-46
2022/06/08 04:34:44;;;;;;;7.88;2.63;;;;;;;21.40;100.00;96044.13;5022038;28;20076;-52
2022/06/08 04:37:12;;;;;;;2.53;2.20;;;;;;;22.87;100.00;96037.63;5020778;28;20519;-49
2022/06/08 04:39:41;;;;;;;3.45;2.47;;;;;;;23.84;100.00;96032.56;5020256;28;20073;-55
2022/06/08 04:42:15;;;;;;;4.25;2.50;;;;;;;22.56;100.00;96034.19;5021000;28;20057;-53
2022/06/08 04:44:44;;;;;;;2.65;2.45;;;;;;;22.33;100.00;96045.69;5021428;28;20064;-51
2022/06/08 04:47:12;;;;;;;2.83;2.40;;;;;;;22.91;100.00;96039.59;5021216;28;20059;-51
2022/06/08 04:49:43;;;;;;;3.67;2.40;;;;;;;22.77;100.00;96035.50;5025147;28;20688;-51
2022/06/08 04:52:11;;;;;;;2.53;2.33;;;;;;;23.62;100.00;96028.84;5024485;28;20522;-50
2022/06/08 04:54:40;;;;;;;3.53;2.72;;;;;;;24.17;100.00;96023.78;5024801;28;20491;-49
2022/06/08 04:57:11;;;;;;;2.30;2.20;;;;;;;23.38;100.00;96022.69;5021851;28;20076;-50
2022/06/08 04:59:40;;;;;;;3.75;2.75;;;;;;;23.76;100.00;96015.97;5025449;28;20065;-50
2022/06/08 05:02:09;;;;;;;3.17;2.53;;;;;;;24.71;100.00;96020.72;5024710;28;20069;-54
2022/06/08 05:04:38;;;;;;;3.78;2.53;;;;;;;23.16;100.00;96026.00;5021929;28;20118;-52
2022/06/08 05:07:08;;;;;;;3.50;2.60;;;;;;;24.36;100.00;96013.63;5025420;28;20072;-47
2022/06/08 05:09:37;;;;;;;2.47;2.25;;;;;;;23.68;100.00;96023.38;5023863;28;20073;-48
2022/06/08 05:12:07;;;;;;;4.23;2.30;;;;;;;22.85;100.00;96018.22;5024285;28;20566;-51
2022/06/08 05:14:35;;;;;;;3.55;2.80;;;;;;;23.83;100.00;96024.72;5025893;28;20546;-53
2022/06/08 05:17:10;;;;;;;2.97;2.47;;;;;;;23.96;100.00;96012.88;5024622;28;20461;-52
2022/06/08 05:19:39;;;;;;;5.35;2.80;;;;;;;23.63;100.00;96017.84;5024613;28;20080;-51
2022/06/08 05:22:08;;;;;;;2.63;2.28;;;;;;;24.22;100.00;96014.16;5024491;28;20076;-50
2022/06/08 05:24:37;;;;;;;2.67;2.38;;;;;;;24.59;100.00;96015.38;5027251;28;20080;-48
2022/06/08 05:27:06;;;;;;;2.60;2.40;;;;;;;23.74;100.00;96008.13;5023133;28;20069;-52
2022/06/08 05:29:34;;;;;;;2.20;2.00;;;;;;;23.68;100.00;96007.22;5022244;28;20176;-49
2022/06/08 05:32:03;;;;;;;3.45;2.20;;;;;;;22.97;100.00;96005.63;5024243;28;20077;-47
2022/06/08 05:34:32;;;;;;;2.83;2.20;;;;;;;22.64;100.00;96006.16;5024500;28;20507;-52
2022/06/08 05:37:00;;;;;;;2.60;2.10;;;;;;;22.97;100.00;96003.75;5022796;28;20076;-56
2022/06/08 05:39:30;;;;;;;2.80;2.40;;;;;;;22.65;100.00;96002.44;5021621;28;20104;-50
2022/06/08 05:41:59;;;;;;;2.45;2.25;;;;;;;22.67;100.00;96001.13;5019383;28;20515;-52
2022/06/08 05:44:27;;;;;;;3.05;2.25;;;;;;;22.77;100.00;96008.63;5022255;28;20073;-55
2022/06/08 05:46:56;;;;;;;5.18;2.30;;;;;;;21.87;100.00;96009.53;5020814;28;20507;-49
2022/06/08 05:49:24;;;;;;;2.50;2.17;;;;;;;22.33;100.00;96005.38;5022519;28;20061;-47
2022/06/08 05:51:54;;;;;;;3.50;2.47;;;;;;;22.21;100.00;96009.91;5021320;28;20073;-51
2022/06/08 05:54:22;;;;;;;2.60;2.40;;;;;;;21.34;100.00;96010.19;5021457;28;20513;-49
2022/06/08 05:56:52;;;;;;;2.65;2.20;;;;;;;22.44;100.00;96010.00;5021643;28;20065;-51
2022/06/08 05:59:21;;;;;;;2.75;1.60;;;;;;;21.52;100.00;96014.72;5025202;28;20080;-46
2022/06/08 06:01:49;;;;;;;1.70;1.50;;;;;;;20.74;100.00;96013.38;5017887;28;20072;-52
2022/06/08 06:04:18;;;;;;;4.07;1.15;;;;;;;21.08;100.00;96017.41;5022449;28;21081;-48
2022/06/08 06:06:47;;;;;;;4.07;1.50;;;;;;;20.69;100.00;96018.59;5025475;28;20073;-46
2022/06/08 06:09:17;;;;;;;2.08;1.60;;;;;;;20.61;100.00;96019.69;5030299;28;20080;-53
2022/06/08 06:11:46;;;;;;;5.53;1.40;;;;;;;20.18;100.00;96019.56;5034512;28;20427;-52
2022/06/08 06:14:16;;;;;;;3.67;1.83;;;;;;;20.01;100.00;96023.78;5022841;28;20465;-48
2022/06/08 06:16:45;;;;;;;3.30;1.70;;;;;;;20.11;100.00;96022.28;5025262;28;20076;-53
2022/06/08 06:19:13;;;;;;;3.80;1.70;;;;;;;19.92;100.00;96021.34;5018058;28;20089;-48
2022/06/08 06:21:42;;;;;;;2.92;1.38;;;;;;;20.23;100.00;96018.91;5024785;28;20134;-50
2022/06/08 06:24:15;;;;;;;2.55;1.50;;;;;;;20.55;100.00;96015.22;5019976;28;20094;-47
2022/06/08 06:26:44;;;;;;;5.30;1.60;;;;;;;20.23;100.00;96008.19;5020966;28;20096;-46
2022/06/08 06:29:13;;;;;;;2.80;1.80;;;;;;;20.40;100.00;96011.97;5020386;28;20453;-51
2022/06/08 06:31:46;;;;;;;4.47;1.60;;;;;;;20.41;100.00;96012.81;5024362;28;20076;-53
2022/06/08 06:34:16;;;;;;;3.03;1.75;;;;;;;20.20;100.00;96005.94;5027614;28;20072;-48
2022/06/08 06:36:45;;;;;;;4.25;1.60;;;;;;;20.56;100.00;96006.13;5024630;28;20088;-54
2022/06/08 06:39:13;;;;;;;2.95;1.77;;;;;;;20.40;100.00;96001.25;5024565;28;20068;-53
2022/06/08 06:41:43;;;;;;;4.13;1.90;;;;;;;20.87;100.00;96007.09;5019499;28;20077;-55
2022/06/08 06:44:12;;;;;;;3.00;1.80;;;;;;;20.75;100.00;95996.28;5018569;28;20077;-50
2022/06/08 06:46:41;;;;;;;3.25;1.60;;;;;;;20.51;100.00;96003.28;5020395;28;20069;-47
2022/06/08 06:49:11;;;;;;;4.15;1.70;;;;;;;21.23;100.00;95992.09;5017319;28;20487;-48
2022/06/08 06:51:40;;;;;;;4.07;1.63;;;;;;;20.98;100.00;96000.19;5013885;28;20393;-48
2022/06/08 06:54:10;;;;;;;1.90;1.50;;;;;;;20.98;100.00;95995.66;5021532;28;20064;-49
2022/06/08 06:56:39;;;;;;;3.47;1.70;;;;;;;21.51;100.00;95994.31;5025808;28;20084;-49
2022/06/08 06:59:07;;;;;;;2.75;1.60;;;;;;;21.50;100.00;95987.28;5024293;28;20076;-49
2022/06/08 07:01:36;;;;;;;3.15;1.90;;;;;;;21.51;100.00;95988.94;5019699;28;20058;-47
2022/06/08 07:04:05;;;;;;;3.28;1.67;;;;;;;21.44;100.00;95996.22;5019192;28;20096;-47
2022/06/08 07:06:35;;;;;;;2.30;1.60;;;;;;;21.59;100.00;95990.50;5021111;28;20070;-45
2022/06/08 07:09:04;;;;;;;3.45;2.10;;;;;;;21.95;100.00;95987.72;5024714;28;20053;-46
2022/06/08 07:11:39;;;;;;;3.72;1.95;;;;;;;21.96;100.00;95985.88;5021960;28;20068;-47
2022/06/08 07:14:11;;;;;;;6.20;2.05;;;;;;;21.76;100.00;95984.28;5024847;28;20480;-46
2022/06/08 07:16:41;;;;;;;3.15;1.77;;;;;;;21.92;100.00;95988.19;5023928;28;20125;-46
2022/06/08 07:19:09;;;;;;;4.07;2.17;;;;;;;21.60;100.00;95984.88;5026291;28;20512;-49
2022/06/08 07:21:39;;;;;;;3.85;1.98;;;;;;;22.18;100.00;95987.00;5018006;28;20079;-49
2022/06/08 07:24:09;;;;;;;4.75;2.40;;;;;;;22.05;100.00;95977.25;5021540;28;20073;-45
2022/06/08 07:26:38;;;;;;;2.67;1.70;;;;;;;22.24;100.00;95974.56;5022322;28;20037;-50
2022/06/08 07:29:06;;;;;;;5.00;2.20;;;;;;;22.63;100.00;95964.19;5027713;28;20072;-46
2022/06/08 07:31:35;;;;;;;5.82;1.60;;;;;;;22.17;100.00;95965.78;5024474;28;20064;-49
2022/06/08 07:34:03;;;;;;;3.88;1.83;;;;;;;22.07;100.00;95971.66;5021397;28;20097;-49
2022/06/08 07:36:32;;;;;;;5.72;2.05;;;;;;;22.24;100.00;95963.81;5020369;28;20088;-52
2022/06/08 07:39:02;;;;;;;3.28;1.65;;;;;;;22.33;100.00;95954.34;5020563;28;20065;-51
2022/06/08 07:41:30;;;;;;;2.58;1.85;;;;;;;21.95;100.00;95957.38;5022430;28;20061;-51
2022/06/08 07:43:59;;;;;;;5.30;1.80;;;;;;;21.49;100.00;95953.44;5021742;28;20084;-48
2022/06/08 07:46:29;;;;;;;4.90;1.80;;;;;;;21.58;100.00;95957.47;5020660;28;20057;-48
2022/06/08 07:51:43;;;;;;;3.47;1.70;;;;;;;22.20;100.00;95947.34;5024662;28;21517;-48
2022/06/08 07:54:13;;;;;;;2.20;1.80;;;;;;;22.33;100.00;95940.09;5025981;28;20068;-49
2022/06/08 07:56:42;;;;;;;;;;;;;;;22.47;100.00;95944.19;5027887;28;20034;-47
2022/06/08 07:59:11;;;;;;;7.53;2.13;;;;;;;22.91;100.00;95931.25;5023105;28;19955;-49
2022/06/08 08:01:39;;;;;;;4.00;2.20;;;;;;;23.96;100.00;95940.16;5022019;28;20069;-49
2022/06/08 08:04:08;;;;;;;2.58;1.80;;;;;;;23.96;100.00;95940.16;5023113;28;20065;-50
2022/06/08 08:06:36;;;;;;;3.05;2.00;;;;;;;24.01;100.00;95932.97;5025420;28;20069;-49
2022/06/08 08:09:05;;;;;;;3.83;1.90;;;;;;;24.44;100.00;95931.56;5024325;28;20065;-52
2022/06/08 08:11:35;;;;;;;2.17;1.63;;;;;;;24.43;100.00;95929.91;5020359;28;20073;-51
2022/06/08 08:14:03;;;;;;;3.97;1.67;;;;;;;24.75;100.00;95924.78;5024000;28;20066;-50
2022/06/08 08:16:32;;;;;;;3.80;1.50;;;;;;;24.09;100.00;95924.50;5016441;28;20077;-53
2022/06/08 08:19:00;;;;;;;4.35;1.75;;;;;;;24.07;100.00;95928.50;5021486;28;20088;-51
2022/06/08 08:21:29;;;;;;;3.13;1.63;;;;;;;24.29;100.00;95924.00;5020731;28;20333;-50
2022/06/08 08:23:57;;;;;;;3.17;1.65;;;;;;;24.02;100.00;95918.44;5022240;28;20079;-53
2022/06/08 08:26:26;;;;;;;2.67;1.50;;;;;;;24.21;100.00;95915.53;5023875;28;20065;-49
2022/06/08 08:28:57;;;;;;;2.60;1.60;;;;;;;24.46;100.00;95915.16;5020445;28;20069;-52
2022/06/08 08:31:26;;;;;;;;;;;;;;;24.22;100.00;95898.28;5020866;28;20080;-52
2022/06/08 08:33:55;;;;;;;2.47;1.35;;;;;;;24.55;100.00;95901.00;5026100;28;19964;-51
2022/06/08 08:36:24;;;;;;;4.63;2.00;;;;;;;25.53;100.00;95908.53;5020605;28;20092;-56
2022/06/08 08:38:52;;;;;;;2.90;1.80;;;;;;;25.57;100.00;95899.69;5027209;28;20077;-44
2022/06/08 08:44:15;;;;;;;2.80;1.52;;;;;;;24.56;100.00;95897.25;5026213;28;20512;-46
2022/06/08 08:46:51;;;;;;;3.38;1.33;;;;;;;25.53;100.00;95895.88;5020831;28;20095;-53
2022/06/08 08:49:23;;;;;;;5.00;1.42;;;;;;;25.27;100.00;95891.22;5017870;28;24665;-52
2022/06/08 08:51:55;;;;;;;4.22;1.70;;;;;;;25.60;100.00;95901.03;5020086;28;20080;-48
2022/06/08 08:54:28;;;;;;;6.10;1.25;;;;;;;26.04;100.00;95899.09;5022991;28;20073;-54
2022/06/08 08:57:01;;;;;;;2.45;1.20;;;;;;;24.90;100.00;95888.28;5020117;28;20080;-50
2022/06/08 08:59:32;;;;;;;2.55;1.42;;;;;;;24.92;100.00;95886.16;5020262;28;20080;-48
2022/06/08 09:02:01;;;;;;;4.30;1.60;;;;;;;24.73;100.00;95891.81;5020888;28;20080;-46
2022/06/08 09:04:32;;;;;;;3.45;1.20;;;;;;;25.26;100.00;95876.94;5024039;28;20065;-45
2022/06/08 09:07:08;;;;;;;3.63;1.55;;;;;;;25.99;98.69;95885.56;5020478;28;20080;-58
2022/06/08 09:09:36;;;;;;;3.38;1.35;;;;;;;26.26;91.32;95872.00;5025254;28;20065;-48
2022/06/08 09:12:05;;;;;;;1.83;1.27;;;;;;;26.32;97.91;95872.84;5020562;28;20080;-51
2022/06/08 09:14:59;;;;;;;4.03;1.38;;;;;;;26.15;94.39;95864.91;5023919;28;20061;-52
2022/06/08 09:17:32;;;;;;;3.15;1.40;;;;;;;25.08;84.63;95872.59;5018427;28;20069;-54
2022/06/08 09:20:03;;;;;;;3.05;1.40;;;;;;;25.97;89.20;95862.56;5022667;28;20057;-53
2022/06/08 09:22:32;;;;;;;2.42;1.13;;;;;;;26.20;93.05;95854.13;5020347;28;20177;-48
2022/06/08 09:25:28;;;;;;;2.88;1.23;;;;;;;25.14;100.00;95864.63;5022451;28;20076;-54
2022/06/08 09:27:58;;;;;;;2.88;1.25;;;;;;;24.94;100.00;95849.78;5018076;28;20081;-54
2022/06/08 09:30:29;;;;;;;1.70;1.10;;;;;;;25.39;100.00;95840.63;5020901;28;20152;-52
2022/06/08 09:33:18;;;;;;;3.70;1.50;;;;;;;25.17;98.31;95835.25;5020916;28;20080;-51
2022/06/08 09:35:53;;;;;;;4.60;1.40;;;;;;;24.56;100.00;95834.44;5016455;28;20065;-52
2022/06/08 09:38:24;;;;;;;3.60;1.38;;;;;;;25.66;100.00;95829.81;5016682;28;20080;-52
2022/06/08 09:40:59;;;;;;;3.55;1.20;;;;;;;25.74;100.00;95826.69;5021226;28;20073;-55
2022/06/08 09:43:36;;;;;;;3.13;1.00;;;;;;;24.84;100.00;95823.50;5021347;28;20057;-51
2022/06/08 09:46:10;;;;;;;3.92;1.40;;;;;;;24.42;100.00;95816.97;5018031;28;20058;-54
2022/06/08 09:51:49;;;;;;;2.17;1.20;;;;;;;25.03;100.00;95815.09;5021013;28;20550;-52
2022/06/08 09:54:22;;;;;;;4.07;1.42;;;;;;;25.56;100.00;95810.81;5019267;28;20057;-54
2022/06/08 09:57:02;;;;;;;2.85;1.30;;;;;;;24.22;100.00;95812.88;5016063;28;20095;-56
2022/06/08 09:59:35;;;;;;;;;;;;;;;25.10;93.14;95805.72;5024246;28;20057;-48
2022/06/08 10:02:12;;;;;;;2.95;1.42;;;;;;;25.06;99.39;95803.81;5021002;28;20411;-54
2022/06/08 10:04:53;;;;;;;3.35;1.35;;;;;;;25.16;100.00;95803.13;5021098;28;20072;-50
2022/06/08 10:07:27;;;;;;;2.65;1.55;;;;;;;24.68;100.00;95807.38;5022617;28;20088;-52
2022/06/08 10:10:07;;;;;;;1.95;1.20;;;;;;;25.37;100.00;95796.88;5020505;28;20085;-52
2022/06/08 10:12:42;;;;;;;5.55;1.40;;;;;;;25.46;98.78;95798.03;5026187;28;20075;-53
2022/06/08 10:15:18;;;;;;;1.80;1.20;;;;;;;25.15;100.00;95793.38;5020955;28;20559;-45
2022/06/08 10:17:53;;;;;;;3.80;1.50;;;;;;;24.89;100.00;95784.97;5020445;28;20041;-50
2022/06/08 10:20:26;;;;;;;4.22;1.52;;;;;;;25.19;100.00;95789.94;5022027;28;20511;-47
2022/06/08 10:22:59;;;;;;;2.10;1.30;;;;;;;24.89;93.54;95786.88;5020974;28;20073;-50
2022/06/08 10:25:31;;;;;;;3.63;1.30;;;;;;;24.66;100.00;95786.03;5017362;28;20073;-54
2022/06/08 10:28:03;;;;;;;1.50;1.40;;;;;;;24.90;94.31;95783.09;5020102;28;20061;-54
2022/06/08 10:30:35;;;;;;;4.07;1.40;;;;;;;25.30;91.48;95780.88;5025297;28;20073;-51
2022/06/08 10:33:07;;;;;;;2.97;1.40;;;;;;;25.74;85.14;95775.38;5025785;28;20085;-48
2022/06/08 10:35:41;;;;;;;2.58;1.48;;;;;;;25.47;84.55;95769.19;5021298;28;20053;-49
2022/06/08 10:38:21;;;;;;;4.50;1.42;;;;;;;26.24;91.17;95762.50;5023784;28;20080;-51
2022/06/08 10:40:54;;;;;;;4.22;1.20;;;;;;;27.06;78.70;95761.03;5022651;28;20069;-50
2022/06/08 10:43:25;;;;;;;4.25;1.73;;;;;;;26.46;90.58;95757.78;5026553;28;20057;-49
2022/06/08 10:45:56;;;;;;;2.83;1.50;;;;;;;26.46;93.00;95751.53;5023851;28;20073;-50
2022/06/08 10:48:38;;;;;;;2.80;1.25;;;;;;;26.56;82.12;95748.91;5023384;28;20480;-47
2022/06/08 10:51:30;;;;;;;2.65;1.70;;;;;;;25.16;85.18;95752.69;5021694;28;20516;-54
2022/06/08 10:57:00;;;;;;;2.38;1.48;;;;;;;25.32;79.07;95745.53;5022833;28;20106;-48
2022/06/08 10:59:30;;;;;;;5.30;1.50;;;;;;;25.39;76.24;95737.22;5022352;28;20081;-52
2022/06/08 11:02:04;;;;;;;;;;;;;;;25.58;83.34;95725.00;5024652;28;20073;-54
2022/06/08 11:04:51;;;;;;;2.85;1.38;;;;;;;26.33;73.56;95727.72;5025742;28;19957;-44
2022/06/08 11:07:22;;;;;;;1.92;1.17;;;;;;;26.54;69.37;95721.34;5024288;28;20089;-53
2022/06/08 11:09:56;;;;;;;3.45;1.40;;;;;;;26.91;63.21;95723.94;5022922;28;20482;-50
2022/06/08 11:12:52;;;;;;;3.55;1.17;;;;;;;26.69;81.89;95716.00;5025871;28;20073;-51
2022/06/08 11:15:36;;;;;;;4.40;1.55;;;;;;;26.33;74.21;95725.00;5023366;28;20535;-50
2022/06/08 11:18:25;;;;;;;3.80;1.40;;;;;;;27.36;67.05;95711.59;5020833;28;20072;-51
2022/06/08 11:21:05;;;;;;;4.53;1.50;;;;;;;27.21;64.34;95715.06;5023497;28;20096;-50
2022/06/08 11:23:39;;;;;;;2.03;1.27;;;;;;;25.84;74.79;95722.50;5024918;28;20113;-47
2022/06/08 11:26:26;;;;;;;2.42;1.25;;;;;;;26.21;72.23;95720.59;5025404;28;20076;-51
2022/06/08 11:28:58;;;;;;;3.60;1.52;;;;;;;26.07;76.79;95715.91;5027448;28;20077;-52
2022/06/08 11:31:54;;;;;;;3.00;1.27;;;;;;;26.07;76.79;95715.91;5023139;28;20061;-50
2022/06/08 11:34:32;;;;;;;3.00;1.17;;;;;;;26.48;81.47;95706.16;5009967;28;20064;-50
2022/06/08 11:37:17;;;;;;;4.63;1.58;;;;;;;25.55;80.47;95688.50;5021997;28;20077;-51
2022/06/08 11:39:51;;;;;;;3.85;1.17;;;;;;;26.01;74.52;95696.16;5022062;28;20077;-50
2022/06/08 11:42:24;;;;;;;3.53;1.30;;;;;;;26.92;68.03;95692.25;5025663;28;20092;-48
2022/06/08 11:44:55;;;;;;;5.72;1.20;;;;;;;25.86;87.19;95671.75;5022604;28;20080;-56
2022/06/08 11:47:30;;;;;;;4.45;1.15;;;;;;;25.61;86.43;95662.38;5020073;28;20073;-51
2022/06/08 11:50:01;;;;;;;3.42;1.23;;;;;;;26.54;77.72;95664.56;5014681;28;20608;-53
2022/06/08 11:52:37;;;;;;;2.42;1.00;;;;;;;25.62;71.49;95668.59;5006589;28;20073;-48
2022/06/08 11:55:12;;;;;;;2.13;1.00;;;;;;;26.49;74.02;95662.63;5021912;28;20081;-51
2022/06/08 11:57:45;;;;;;;5.25;1.27;;;;;;;25.79;86.35;95666.53;5021332;28;20083;-55
2022/06/08 12:00:31;;;;;;;1.73;1.23;;;;;;;26.50;76.92;95663.47;5025322;28;20167;-53
2022/06/08 12:03:04;;;;;;;2.75;1.10;;;;;;;25.72;78.99;95661.38;5021843;28;20073;-48
2022/06/08 12:05:34;;;;;;;3.28;1.30;;;;;;;26.49;71.67;95649.09;5019657;28;20092;-53